sensor_id;sensor_type;location;lat;lon;timestamp;P1;durP1;ratioP1;P2;durP2;ratioP2
14975;SDS011;7584;60.468;25.126;2023-08-08T00:02:00;4.05;;;3.15;;
14975;SDS011;7584;60.468;25.126;2023-08-08T00:04:26;8.63;;;3.80;;
14975;SDS011;7584;60.468;25.126;2023-08-08T00:06:51;8.20;;;3.83;;
14975;SDS011;7584;60.468;25.126;2023-08-08T00:09:16;5.57;;;3.78;;
14975;SDS011;7584;60.468;25.126;2023-08-08T00:11:42;7.95;;;3.97;;
14975;SDS011;7584;60.468;25.126;2023-08-08T00:14:07;5.72;;;3.88;;
14975;SDS011;7584;60.468;25.126;2023-08-08T00:16:32;9.40;;;4.30;;
14975;SDS011;7584;60.468;25.126;2023-08-08T00:18:58;6.85;;;4.00;;
14975;SDS011;7584;60.468;25.126;2023-08-08T00:21:23;5.05;;;3.67;;
14975;SDS011;7584;60.468;25.126;2023-08-08T00:23:48;5.90;;;3.97;;
14975;SDS011;7584;60.468;25.126;2023-08-08T00:26:13;8.38;;;3.58;;
14975;SDS011;7584;60.468;25.126;2023-08-08T00:28:39;7.75;;;3.85;;
14975;SDS011;7584;60.468;25.126;2023-08-08T00:31:04;6.28;;;3.80;;
14975;SDS011;7584;60.468;25.126;2023-08-08T00:33:29;7.60;;;4.20;;
14975;SDS011;7584;60.468;25.126;2023-08-08T00:35:54;7.20;;;3.50;;
14975;SDS011;7584;60.468;25.126;2023-08-08T00:38:20;4.97;;;3.80;;
14975;SDS011;7584;60.468;25.126;2023-08-08T00:40:45;11.18;;;4.00;;
14975;SDS011;7584;60.468;25.126;2023-08-08T00:43:10;7.53;;;3.50;;
14975;SDS011;7584;60.468;25.126;2023-08-08T00:45:36;7.13;;;3.58;;
14975;SDS011;7584;60.468;25.126;2023-08-08T00:48:02;6.82;;;3.90;;
14975;SDS011;7584;60.468;25.126;2023-08-08T00:50:27;8.43;;;3.53;;
14975;SDS011;7584;60.468;25.126;2023-08-08T00:52:52;9.90;;;3.95;;
14975;SDS011;7584;60.468;25.126;2023-08-08T00:55:18;6.95;;;3.53;;
14975;SDS011;7584;60.468;25.126;2023-08-08T00:57:43;6.25;;;3.13;;
14975;SDS011;7584;60.468;25.126;2023-08-08T01:00:08;7.90;;;3.85;;
14975;SDS011;7584;60.468;25.126;2023-08-08T01:02:35;5.88;;;3.58;;
14975;SDS011;7584;60.468;25.126;2023-08-08T01:05:01;7.57;;;4.10;;
14975;SDS011;7584;60.468;25.126;2023-08-08T01:07:36;10.73;;;4.10;;
14975;SDS011;7584;60.468;25.126;2023-08-08T01:12:32;5.90;;;3.80;;
14975;SDS011;7584;60.468;25.126;2023-08-08T01:14:57;7.30;;;3.80;;
14975;SDS011;7584;60.468;25.126;2023-08-08T01:17:23;10.70;;;4.05;;
14975;SDS011;7584;60.468;25.126;2023-08-08T01:19:49;12.45;;;4.20;;
14975;SDS011;7584;60.468;25.126;2023-08-08T01:22:20;9.80;;;3.67;;
14975;SDS011;7584;60.468;25.126;2023-08-08T01:24:46;9.02;;;3.75;;
14975;SDS011;7584;60.468;25.126;2023-08-08T01:27:11;12.60;;;3.63;;
14975;SDS011;7584;60.468;25.126;2023-08-08T01:29:37;5.63;;;3.92;;
14975;SDS011;7584;60.468;25.126;2023-08-08T01:32:04;8.45;;;4.30;;
14975;SDS011;7584;60.468;25.126;2023-08-08T01:34:29;6.72;;;3.60;;
14975;SDS011;7584;60.468;25.126;2023-08-08T01:36:59;8.13;;;4.28;;
14975;SDS011;7584;60.468;25.126;2023-08-08T01:39:27;8.35;;;4.07;;
14975;SDS011;7584;60.468;25.126;2023-08-08T01:41:54;6.25;;;3.78;;
14975;SDS011;7584;60.468;25.126;2023-08-08T01:44:19;7.50;;;3.95;;
14975;SDS011;7584;60.468;25.126;2023-08-08T01:46:45;9.80;;;4.05;;
14975;SDS011;7584;60.468;25.126;2023-08-08T01:49:10;9.13;;;4.15;;
14975;SDS011;7584;60.468;25.126;2023-08-08T01:51:35;7.40;;;3.83;;
14975;SDS011;7584;60.468;25.126;2023-08-08T01:54:01;9.18;;;4.10;;
14975;SDS011;7584;60.468;25.126;2023-08-08T01:56:26;6.47;;;4.05;;
14975;SDS011;7584;60.468;25.126;2023-08-08T01:58:51;11.10;;;3.78;;
14975;SDS011;7584;60.468;25.126;2023-08-08T02:01:17;4.40;;;3.53;;
14975;SDS011;7584;60.468;25.126;2023-08-08T02:03:42;9.73;;;4.32;;
14975;SDS011;7584;60.468;25.126;2023-08-08T02:06:07;8.85;;;3.72;;
14975;SDS011;7584;60.468;25.126;2023-08-08T02:08:33;8.15;;;3.95;;
14975;SDS011;7584;60.468;25.126;2023-08-08T02:10:58;8.43;;;4.07;;
14975;SDS011;7584;60.468;25.126;2023-08-08T02:13:23;7.63;;;4.15;;
14975;SDS011;7584;60.468;25.126;2023-08-08T02:15:48;6.25;;;3.90;;
14975;SDS011;7584;60.468;25.126;2023-08-08T02:18:14;4.22;;;3.50;;
14975;SDS011;7584;60.468;25.126;2023-08-08T02:20:39;8.82;;;4.40;;
14975;SDS011;7584;60.468;25.126;2023-08-08T02:23:04;8.45;;;3.70;;
14975;SDS011;7584;60.468;25.126;2023-08-08T02:25:30;8.27;;;3.40;;
14975;SDS011;7584;60.468;25.126;2023-08-08T02:27:56;6.13;;;4.20;;
14975;SDS011;7584;60.468;25.126;2023-08-08T02:30:21;8.20;;;3.67;;
14975;SDS011;7584;60.468;25.126;2023-08-08T02:32:46;4.65;;;3.78;;
14975;SDS011;7584;60.468;25.126;2023-08-08T02:35:12;4.88;;;3.75;;
14975;SDS011;7584;60.468;25.126;2023-08-08T02:37:37;10.75;;;3.55;;
14975;SDS011;7584;60.468;25.126;2023-08-08T02:40:02;9.52;;;3.78;;
14975;SDS011;7584;60.468;25.126;2023-08-08T02:42:28;10.48;;;4.07;;
14975;SDS011;7584;60.468;25.126;2023-08-08T02:44:53;9.23;;;3.60;;
14975;SDS011;7584;60.468;25.126;2023-08-08T02:47:18;11.07;;;3.92;;
14975;SDS011;7584;60.468;25.126;2023-08-08T02:49:43;5.68;;;3.55;;
14975;SDS011;7584;60.468;25.126;2023-08-08T02:52:09;6.82;;;3.40;;
14975;SDS011;7584;60.468;25.126;2023-08-08T02:54:34;7.10;;;3.58;;
14975;SDS011;7584;60.468;25.126;2023-08-08T02:57:00;4.47;;;3.92;;
14975;SDS011;7584;60.468;25.126;2023-08-08T02:59:25;6.97;;;3.08;;
14975;SDS011;7584;60.468;25.126;2023-08-08T03:01:50;6.55;;;3.28;;
14975;SDS011;7584;60.468;25.126;2023-08-08T03:04:16;6.20;;;3.00;;
14975;SDS011;7584;60.468;25.126;2023-08-08T03:06:41;5.20;;;2.85;;
14975;SDS011;7584;60.468;25.126;2023-08-08T03:09:06;5.65;;;3.20;;
14975;SDS011;7584;60.468;25.126;2023-08-08T03:11:32;8.57;;;3.80;;
14975;SDS011;7584;60.468;25.126;2023-08-08T03:13:57;6.57;;;2.97;;
14975;SDS011;7584;60.468;25.126;2023-08-08T03:16:22;8.80;;;3.13;;
14975;SDS011;7584;60.468;25.126;2023-08-08T03:18:48;6.22;;;3.20;;
14975;SDS011;7584;60.468;25.126;2023-08-08T03:21:13;7.47;;;3.22;;
14975;SDS011;7584;60.468;25.126;2023-08-08T03:23:38;6.57;;;3.38;;
14975;SDS011;7584;60.468;25.126;2023-08-08T03:26:03;8.32;;;3.42;;
14975;SDS011;7584;60.468;25.126;2023-08-08T03:28:29;4.97;;;2.92;;
14975;SDS011;7584;60.468;25.126;2023-08-08T03:30:54;11.23;;;3.40;;
14975;SDS011;7584;60.468;25.126;2023-08-08T03:33:19;5.43;;;3.20;;
14975;SDS011;7584;60.468;25.126;2023-08-08T03:35:45;6.60;;;3.20;;
14975;SDS011;7584;60.468;25.126;2023-08-08T03:38:10;5.18;;;3.40;;
14975;SDS011;7584;60.468;25.126;2023-08-08T03:40:35;9.32;;;3.50;;
14975;SDS011;7584;60.468;25.126;2023-08-08T03:43:01;5.50;;;3.13;;
14975;SDS011;7584;60.468;25.126;2023-08-08T03:45:27;8.68;;;3.20;;
14975;SDS011;7584;60.468;25.126;2023-08-08T03:47:52;4.88;;;3.15;;
14975;SDS011;7584;60.468;25.126;2023-08-08T03:50:17;6.80;;;3.38;;
14975;SDS011;7584;60.468;25.126;2023-08-08T03:52:43;7.88;;;3.50;;
14975;SDS011;7584;60.468;25.126;2023-08-08T03:55:08;6.32;;;3.50;;
14975;SDS011;7584;60.468;25.126;2023-08-08T03:57:33;4.78;;;3.67;;
14975;SDS011;7584;60.468;25.126;2023-08-08T03:59:58;6.63;;;3.20;;
14975;SDS011;7584;60.468;25.126;2023-08-08T04:02:24;5.57;;;3.58;;
14975;SDS011;7584;60.468;25.126;2023-08-08T04:04:50;6.70;;;3.70;;
14975;SDS011;7584;60.468;25.126;2023-08-08T04:07:15;8.27;;;3.83;;
14975;SDS011;7584;60.468;25.126;2023-08-08T04:09:40;6.82;;;3.20;;
14975;SDS011;7584;60.468;25.126;2023-08-08T04:12:07;7.65;;;3.35;;
14975;SDS011;7584;60.468;25.126;2023-08-08T04:14:32;4.82;;;3.35;;
14975;SDS011;7584;60.468;25.126;2023-08-08T04:16:57;6.20;;;3.55;;
14975;SDS011;7584;60.468;25.126;2023-08-08T04:19:23;5.75;;;3.28;;
14975;SDS011;7584;60.468;25.126;2023-08-08T04:21:48;6.68;;;3.28;;
14975;SDS011;7584;60.468;25.126;2023-08-08T04:24:13;7.85;;;3.38;;
14975;SDS011;7584;60.468;25.126;2023-08-08T04:26:39;9.93;;;3.20;;
14975;SDS011;7584;60.468;25.126;2023-08-08T04:29:05;9.63;;;2.90;;
14975;SDS011;7584;60.468;25.126;2023-08-08T04:31:30;6.32;;;3.33;;
14975;SDS011;7584;60.468;25.126;2023-08-08T04:33:55;11.15;;;3.55;;
14975;SDS011;7584;60.468;25.126;2023-08-08T04:36:25;5.28;;;3.20;;
14975;SDS011;7584;60.468;25.126;2023-08-08T04:38:50;3.53;;;2.55;;
14975;SDS011;7584;60.468;25.126;2023-08-08T04:41:15;8.27;;;2.97;;
14975;SDS011;7584;60.468;25.126;2023-08-08T04:43:41;8.13;;;2.80;;
14975;SDS011;7584;60.468;25.126;2023-08-08T04:46:06;9.13;;;2.80;;
14975;SDS011;7584;60.468;25.126;2023-08-08T04:48:31;6.00;;;2.83;;
14975;SDS011;7584;60.468;25.126;2023-08-08T04:50:57;6.22;;;2.88;;
14975;SDS011;7584;60.468;25.126;2023-08-08T04:53:22;5.65;;;2.80;;
14975;SDS011;7584;60.468;25.126;2023-08-08T04:55:48;5.90;;;3.28;;
14975;SDS011;7584;60.468;25.126;2023-08-08T04:58:13;5.40;;;2.80;;
14975;SDS011;7584;60.468;25.126;2023-08-08T05:00:38;7.63;;;2.75;;
14975;SDS011;7584;60.468;25.126;2023-08-08T05:03:04;4.25;;;2.88;;
14975;SDS011;7584;60.468;25.126;2023-08-08T05:05:29;5.75;;;3.25;;
14975;SDS011;7584;60.468;25.126;2023-08-08T05:07:54;5.85;;;2.97;;
14975;SDS011;7584;60.468;25.126;2023-08-08T05:10:19;5.72;;;2.95;;
14975;SDS011;7584;60.468;25.126;2023-08-08T05:12:45;7.10;;;2.75;;
14975;SDS011;7584;60.468;25.126;2023-08-08T05:15:10;3.05;;;2.75;;
14975;SDS011;7584;60.468;25.126;2023-08-08T05:17:35;4.20;;;2.50;;
14975;SDS011;7584;60.468;25.126;2023-08-08T05:20:01;5.38;;;2.53;;
14975;SDS011;7584;60.468;25.126;2023-08-08T05:22:26;4.32;;;2.30;;
14975;SDS011;7584;60.468;25.126;2023-08-08T05:24:51;7.88;;;3.00;;
14975;SDS011;7584;60.468;25.126;2023-08-08T05:27:17;9.52;;;3.03;;
14975;SDS011;7584;60.468;25.126;2023-08-08T05:29:42;2.85;;;2.53;;
14975;SDS011;7584;60.468;25.126;2023-08-08T05:32:07;3.50;;;2.42;;
14975;SDS011;7584;60.468;25.126;2023-08-08T05:34:33;3.78;;;2.60;;
14975;SDS011;7584;60.468;25.126;2023-08-08T05:36:58;5.85;;;2.80;;
14975;SDS011;7584;60.468;25.126;2023-08-08T05:39:24;5.35;;;2.58;;
14975;SDS011;7584;60.468;25.126;2023-08-08T05:41:49;3.03;;;2.25;;
14975;SDS011;7584;60.468;25.126;2023-08-08T05:44:14;3.45;;;2.40;;
14975;SDS011;7584;60.468;25.126;2023-08-08T05:46:40;5.18;;;2.55;;
14975;SDS011;7584;60.468;25.126;2023-08-08T05:49:05;7.60;;;2.58;;
14975;SDS011;7584;60.468;25.126;2023-08-08T05:51:31;7.20;;;3.03;;
14975;SDS011;7584;60.468;25.126;2023-08-08T05:53:56;4.68;;;2.35;;
14975;SDS011;7584;60.468;25.126;2023-08-08T05:56:22;3.17;;;2.15;;
14975;SDS011;7584;60.468;25.126;2023-08-08T05:58:47;4.18;;;2.40;;
14975;SDS011;7584;60.468;25.126;2023-08-08T06:01:12;6.53;;;2.67;;
14975;SDS011;7584;60.468;25.126;2023-08-08T06:03:38;7.53;;;2.95;;
14975;SDS011;7584;60.468;25.126;2023-08-08T06:06:03;4.53;;;2.80;;
14975;SDS011;7584;60.468;25.126;2023-08-08T06:08:29;5.38;;;2.42;;
14975;SDS011;7584;60.468;25.126;2023-08-08T06:10:54;5.07;;;2.40;;
14975;SDS011;7584;60.468;25.126;2023-08-08T06:13:20;4.63;;;2.65;;
14975;SDS011;7584;60.468;25.126;2023-08-08T06:15:45;9.70;;;3.08;;
14975;SDS011;7584;60.468;25.126;2023-08-08T06:18:10;4.78;;;2.30;;
14975;SDS011;7584;60.468;25.126;2023-08-08T06:20:36;4.70;;;2.97;;
14975;SDS011;7584;60.468;25.126;2023-08-08T06:23:01;5.65;;;2.70;;
14975;SDS011;7584;60.468;25.126;2023-08-08T06:25:26;7.82;;;3.08;;
14975;SDS011;7584;60.468;25.126;2023-08-08T06:27:53;7.25;;;2.80;;
14975;SDS011;7584;60.468;25.126;2023-08-08T06:30:18;4.25;;;2.95;;
14975;SDS011;7584;60.468;25.126;2023-08-08T06:32:43;5.03;;;2.67;;
14975;SDS011;7584;60.468;25.126;2023-08-08T06:35:09;5.82;;;2.55;;
14975;SDS011;7584;60.468;25.126;2023-08-08T06:37:34;6.70;;;2.40;;
14975;SDS011;7584;60.468;25.126;2023-08-08T06:39:59;3.30;;;2.20;;
14975;SDS011;7584;60.468;25.126;2023-08-08T06:42:24;7.20;;;2.15;;
14975;SDS011;7584;60.468;25.126;2023-08-08T06:44:50;9.43;;;2.50;;
14975;SDS011;7584;60.468;25.126;2023-08-08T06:47:15;3.63;;;2.13;;
14975;SDS011;7584;60.468;25.126;2023-08-08T06:49:40;6.32;;;2.17;;
14975;SDS011;7584;60.468;25.126;2023-08-08T06:52:06;4.45;;;1.73;;
14975;SDS011;7584;60.468;25.126;2023-08-08T06:54:31;4.53;;;1.00;;
14975;SDS011;7584;60.468;25.126;2023-08-08T06:56:57;1.88;;;0.90;;
14975;SDS011;7584;60.468;25.126;2023-08-08T06:59:22;4.22;;;0.85;;
14975;SDS011;7584;60.468;25.126;2023-08-08T07:01:48;1.92;;;0.77;;
14975;SDS011;7584;60.468;25.126;2023-08-08T07:04:13;3.80;;;0.55;;
14975;SDS011;7584;60.468;25.126;2023-08-08T07:06:39;2.10;;;0.38;;
14975;SDS011;7584;60.468;25.126;2023-08-08T07:09:04;1.70;;;0.65;;
14975;SDS011;7584;60.468;25.126;2023-08-08T07:11:29;3.45;;;0.60;;
14975;SDS011;7584;60.468;25.126;2023-08-08T07:13:54;0.90;;;0.40;;
14975;SDS011;7584;60.468;25.126;2023-08-08T07:16:20;1.40;;;0.40;;
14975;SDS011;7584;60.468;25.126;2023-08-08T07:18:45;4.22;;;0.35;;
14975;SDS011;7584;60.468;25.126;2023-08-08T07:21:10;2.55;;;0.30;;
14975;SDS011;7584;60.468;25.126;2023-08-08T07:23:35;3.88;;;0.40;;
14975;SDS011;7584;60.468;25.126;2023-08-08T07:26:01;2.38;;;0.30;;
14975;SDS011;7584;60.468;25.126;2023-08-08T07:28:26;0.57;;;0.17;;
14975;SDS011;7584;60.468;25.126;2023-08-08T07:30:51;4.50;;;0.20;;
14975;SDS011;7584;60.468;25.126;2023-08-08T07:33:17;1.00;;;0.20;;
14975;SDS011;7584;60.468;25.126;2023-08-08T07:35:42;0.95;;;0.20;;
14975;SDS011;7584;60.468;25.126;2023-08-08T07:38:07;2.85;;;0.30;;
14975;SDS011;7584;60.468;25.126;2023-08-08T07:40:33;0.73;;;0.10;;
14975;SDS011;7584;60.468;25.126;2023-08-08T07:42:58;1.63;;;0.40;;
14975;SDS011;7584;60.468;25.126;2023-08-08T07:45:24;0.93;;;0.17;;
14975;SDS011;7584;60.468;25.126;2023-08-08T07:47:49;2.08;;;0.20;;
14975;SDS011;7584;60.468;25.126;2023-08-08T07:50:14;0.98;;;0.20;;
14975;SDS011;7584;60.468;25.126;2023-08-08T07:52:39;0.88;;;0.30;;
14975;SDS011;7584;60.468;25.126;2023-08-08T07:55:05;3.13;;;0.40;;
14975;SDS011;7584;60.468;25.126;2023-08-08T07:57:31;1.65;;;0.35;;
14975;SDS011;7584;60.468;25.126;2023-08-08T07:59:56;0.50;;;0.20;;
14975;SDS011;7584;60.468;25.126;2023-08-08T08:02:22;2.00;;;0.20;;
14975;SDS011;7584;60.468;25.126;2023-08-08T08:04:47;5.18;;;0.30;;
14975;SDS011;7584;60.468;25.126;2023-08-08T08:07:12;0.57;;;0.20;;
14975;SDS011;7584;60.468;25.126;2023-08-08T08:09:38;0.73;;;0.20;;
14975;SDS011;7584;60.468;25.126;2023-08-08T08:12:03;3.20;;;0.20;;
14975;SDS011;7584;60.468;25.126;2023-08-08T08:14:29;0.60;;;0.30;;
14975;SDS011;7584;60.468;25.126;2023-08-08T08:16:54;1.05;;;0.30;;
14975;SDS011;7584;60.468;25.126;2023-08-08T08:19:19;3.90;;;0.20;;
14975;SDS011;7584;60.468;25.126;2023-08-08T08:21:45;1.52;;;0.20;;
14975;SDS011;7584;60.468;25.126;2023-08-08T08:24:10;1.38;;;0.20;;
14975;SDS011;7584;60.468;25.126;2023-08-08T08:26:35;1.42;;;0.32;;
14975;SDS011;7584;60.468;25.126;2023-08-08T08:29:01;0.40;;;0.10;;
14975;SDS011;7584;60.468;25.126;2023-08-08T08:31:26;0.60;;;0.17;;
14975;SDS011;7584;60.468;25.126;2023-08-08T08:33:52;2.28;;;0.38;;
14975;SDS011;7584;60.468;25.126;2023-08-08T08:36:20;0.80;;;0.10;;
14975;SDS011;7584;60.468;25.126;2023-08-08T08:38:46;2.85;;;0.25;;
14975;SDS011;7584;60.468;25.126;2023-08-08T08:41:11;1.95;;;0.30;;
14975;SDS011;7584;60.468;25.126;2023-08-08T08:43:39;2.35;;;0.30;;
14975;SDS011;7584;60.468;25.126;2023-08-08T08:46:04;1.02;;;0.30;;
14975;SDS011;7584;60.468;25.126;2023-08-08T08:48:30;0.70;;;0.10;;
14975;SDS011;7584;60.468;25.126;2023-08-08T08:50:56;0.82;;;0.20;;
14975;SDS011;7584;60.468;25.126;2023-08-08T08:53:22;0.40;;;0.20;;
14975;SDS011;7584;60.468;25.126;2023-08-08T08:55:47;0.40;;;0.20;;
14975;SDS011;7584;60.468;25.126;2023-08-08T08:58:14;1.33;;;0.20;;
14975;SDS011;7584;60.468;25.126;2023-08-08T09:00:41;0.68;;;0.28;;
14975;SDS011;7584;60.468;25.126;2023-08-08T09:03:08;0.77;;;0.30;;
14975;SDS011;7584;60.468;25.126;2023-08-08T09:05:33;0.85;;;0.10;;
14975;SDS011;7584;60.468;25.126;2023-08-08T09:07:58;0.55;;;0.20;;
14975;SDS011;7584;60.468;25.126;2023-08-08T09:10:24;2.95;;;0.50;;
14975;SDS011;7584;60.468;25.126;2023-08-08T09:12:50;2.63;;;0.38;;
14975;SDS011;7584;60.468;25.126;2023-08-08T09:15:15;0.55;;;0.20;;
14975;SDS011;7584;60.468;25.126;2023-08-08T09:17:43;1.52;;;0.25;;
14975;SDS011;7584;60.468;25.126;2023-08-08T09:20:11;3.08;;;0.30;;
14975;SDS011;7584;60.468;25.126;2023-08-08T09:22:36;0.95;;;0.35;;
14975;SDS011;7584;60.468;25.126;2023-08-08T09:25:02;1.48;;;0.40;;
14975;SDS011;7584;60.468;25.126;2023-08-08T09:27:28;2.47;;;0.40;;
14975;SDS011;7584;60.468;25.126;2023-08-08T09:29:53;0.80;;;0.30;;
14975;SDS011;7584;60.468;25.126;2023-08-08T09:32:19;1.60;;;0.30;;
14975;SDS011;7584;60.468;25.126;2023-08-08T09:34:44;2.63;;;0.22;;
14975;SDS011;7584;60.468;25.126;2023-08-08T09:37:10;1.38;;;0.20;;
14975;SDS011;7584;60.468;25.126;2023-08-08T09:39:36;0.70;;;0.10;;
14975;SDS011;7584;60.468;25.126;2023-08-08T09:42:01;1.38;;;0.15;;
14975;SDS011;7584;60.468;25.126;2023-08-08T09:44:27;0.70;;;0.20;;
14975;SDS011;7584;60.468;25.126;2023-08-08T09:46:54;0.95;;;0.20;;
14975;SDS011;7584;60.468;25.126;2023-08-08T09:49:20;1.75;;;0.32;;
14975;SDS011;7584;60.468;25.126;2023-08-08T09:51:46;0.70;;;0.20;;
14975;SDS011;7584;60.468;25.126;2023-08-08T09:54:12;0.75;;;0.17;;
14975;SDS011;7584;60.468;25.126;2023-08-08T09:56:38;1.27;;;0.30;;
14975;SDS011;7584;60.468;25.126;2023-08-08T09:59:04;0.65;;;0.20;;
14975;SDS011;7584;60.468;25.126;2023-08-08T10:01:30;1.27;;;0.30;;
14975;SDS011;7584;60.468;25.126;2023-08-08T10:03:56;1.02;;;0.30;;
14975;SDS011;7584;60.468;25.126;2023-08-08T10:06:22;0.80;;;0.25;;
14975;SDS011;7584;60.468;25.126;2023-08-08T10:08:47;0.40;;;0.30;;
14975;SDS011;7584;60.468;25.126;2023-08-08T10:11:12;2.90;;;0.20;;
14975;SDS011;7584;60.468;25.126;2023-08-08T10:13:46;1.63;;;0.32;;
14975;SDS011;7584;60.468;25.126;2023-08-08T10:16:12;0.75;;;0.30;;
14975;SDS011;7584;60.468;25.126;2023-08-08T10:18:37;1.92;;;0.38;;
14975;SDS011;7584;60.468;25.126;2023-08-08T10:21:03;1.17;;;0.30;;
14975;SDS011;7584;60.468;25.126;2023-08-08T10:23:34;4.57;;;0.30;;
14975;SDS011;7584;60.468;25.126;2023-08-08T10:26:01;4.82;;;0.38;;
14975;SDS011;7584;60.468;25.126;2023-08-08T10:28:27;1.52;;;0.30;;
14975;SDS011;7584;60.468;25.126;2023-08-08T10:30:53;1.05;;;0.40;;
14975;SDS011;7584;60.468;25.126;2023-08-08T10:33:20;2.88;;;0.50;;
14975;SDS011;7584;60.468;25.126;2023-08-08T10:38:20;0.63;;;0.20;;
14975;SDS011;7584;60.468;25.126;2023-08-08T10:40:46;0.95;;;0.30;;
14975;SDS011;7584;60.468;25.126;2023-08-08T10:43:12;1.30;;;0.30;;
14975;SDS011;7584;60.468;25.126;2023-08-08T10:45:40;0.75;;;0.30;;
14975;SDS011;7584;60.468;25.126;2023-08-08T10:48:08;0.52;;;0.20;;
14975;SDS011;7584;60.468;25.126;2023-08-08T10:50:33;0.73;;;0.20;;
14975;SDS011;7584;60.468;25.126;2023-08-08T10:53:03;0.22;;;0.20;;
14975;SDS011;7584;60.468;25.126;2023-08-08T10:55:32;0.85;;;0.25;;
14975;SDS011;7584;60.468;25.126;2023-08-08T10:58:08;0.75;;;0.20;;
14975;SDS011;7584;60.468;25.126;2023-08-08T11:00:34;0.20;;;0.20;;
14975;SDS011;7584;60.468;25.126;2023-08-08T11:03:00;2.58;;;0.32;;
14975;SDS011;7584;60.468;25.126;2023-08-08T11:05:29;1.30;;;0.40;;
14975;SDS011;7584;60.468;25.126;2023-08-08T11:07:55;1.20;;;0.50;;
14975;SDS011;7584;60.468;25.126;2023-08-08T11:10:20;1.05;;;0.40;;
14975;SDS011;7584;60.468;25.126;2023-08-08T11:12:55;1.35;;;0.40;;
14975;SDS011;7584;60.468;25.126;2023-08-08T11:15:20;0.70;;;0.32;;
14975;SDS011;7584;60.468;25.126;2023-08-08T11:17:45;1.10;;;0.57;;
14975;SDS011;7584;60.468;25.126;2023-08-08T11:20:10;3.58;;;0.50;;
14975;SDS011;7584;60.468;25.126;2023-08-08T11:22:36;1.65;;;0.50;;
14975;SDS011;7584;60.468;25.126;2023-08-08T11:25:01;2.60;;;0.57;;
14975;SDS011;7584;60.468;25.126;2023-08-08T11:27:28;1.50;;;0.57;;
14975;SDS011;7584;60.468;25.126;2023-08-08T11:29:55;1.50;;;0.45;;
14975;SDS011;7584;60.468;25.126;2023-08-08T11:32:21;2.40;;;0.60;;
14975;SDS011;7584;60.468;25.126;2023-08-08T11:34:46;1.48;;;0.45;;
14975;SDS011;7584;60.468;25.126;2023-08-08T11:37:12;2.22;;;0.65;;
14975;SDS011;7584;60.468;25.126;2023-08-08T11:39:40;0.65;;;0.50;;
14975;SDS011;7584;60.468;25.126;2023-08-08T11:42:05;1.63;;;0.82;;
14975;SDS011;7584;60.468;25.126;2023-08-08T11:44:31;3.15;;;0.60;;
14975;SDS011;7584;60.468;25.126;2023-08-08T11:46:59;2.13;;;0.60;;
14975;SDS011;7584;60.468;25.126;2023-08-08T11:49:24;3.53;;;0.65;;
14975;SDS011;7584;60.468;25.126;2023-08-08T11:51:50;3.65;;;0.50;;
14975;SDS011;7584;60.468;25.126;2023-08-08T11:54:16;1.70;;;0.60;;
14975;SDS011;7584;60.468;25.126;2023-08-08T11:56:41;1.75;;;0.50;;
14975;SDS011;7584;60.468;25.126;2023-08-08T11:59:06;1.42;;;0.60;;
14975;SDS011;7584;60.468;25.126;2023-08-08T12:01:33;1.05;;;0.50;;
14975;SDS011;7584;60.468;25.126;2023-08-08T12:04:04;0.70;;;0.40;;
14975;SDS011;7584;60.468;25.126;2023-08-08T12:06:29;3.67;;;0.50;;
14975;SDS011;7584;60.468;25.126;2023-08-08T12:08:54;1.55;;;0.88;;
14975;SDS011;7584;60.468;25.126;2023-08-08T12:11:20;4.07;;;0.68;;
14975;SDS011;7584;60.468;25.126;2023-08-08T12:13:45;2.88;;;0.70;;
14975;SDS011;7584;60.468;25.126;2023-08-08T12:16:11;1.13;;;0.50;;
14975;SDS011;7584;60.468;25.126;2023-08-08T12:18:37;1.70;;;0.50;;
14975;SDS011;7584;60.468;25.126;2023-08-08T12:21:06;1.63;;;0.75;;
14975;SDS011;7584;60.468;25.126;2023-08-08T12:23:31;1.45;;;0.63;;
14975;SDS011;7584;60.468;25.126;2023-08-08T12:25:57;1.65;;;0.60;;
14975;SDS011;7584;60.468;25.126;2023-08-08T12:28:23;2.85;;;0.65;;
14975;SDS011;7584;60.468;25.126;2023-08-08T12:30:48;2.22;;;0.50;;
14975;SDS011;7584;60.468;25.126;2023-08-08T12:33:13;5.97;;;0.90;;
14975;SDS011;7584;60.468;25.126;2023-08-08T12:35:39;4.35;;;0.77;;
14975;SDS011;7584;60.468;25.126;2023-08-08T12:38:04;1.35;;;0.60;;
14975;SDS011;7584;60.468;25.126;2023-08-08T12:40:29;1.83;;;0.70;;
14975;SDS011;7584;60.468;25.126;2023-08-08T12:42:55;2.20;;;0.73;;
14975;SDS011;7584;60.468;25.126;2023-08-08T12:45:20;5.10;;;0.70;;
14975;SDS011;7584;60.468;25.126;2023-08-08T12:47:45;4.20;;;0.80;;
14975;SDS011;7584;60.468;25.126;2023-08-08T12:50:10;2.88;;;0.65;;
14975;SDS011;7584;60.468;25.126;2023-08-08T12:52:36;1.10;;;0.45;;
14975;SDS011;7584;60.468;25.126;2023-08-08T12:55:03;1.88;;;0.63;;
14975;SDS011;7584;60.468;25.126;2023-08-08T12:57:28;1.48;;;0.65;;
14975;SDS011;7584;60.468;25.126;2023-08-08T12:59:54;1.60;;;0.85;;
14975;SDS011;7584;60.468;25.126;2023-08-08T13:02:19;2.58;;;0.70;;
14975;SDS011;7584;60.468;25.126;2023-08-08T13:04:45;0.98;;;0.50;;
14975;SDS011;7584;60.468;25.126;2023-08-08T13:07:10;2.22;;;0.73;;
14975;SDS011;7584;60.468;25.126;2023-08-08T13:09:35;2.67;;;0.70;;
14975;SDS011;7584;60.468;25.126;2023-08-08T13:12:01;2.13;;;0.68;;
14975;SDS011;7584;60.468;25.126;2023-08-08T13:14:26;0.98;;;0.50;;
14975;SDS011;7584;60.468;25.126;2023-08-08T13:16:51;2.15;;;0.73;;
14975;SDS011;7584;60.468;25.126;2023-08-08T13:19:17;1.85;;;0.60;;
14975;SDS011;7584;60.468;25.126;2023-08-08T13:21:44;4.03;;;0.80;;
14975;SDS011;7584;60.468;25.126;2023-08-08T13:24:10;2.97;;;0.60;;
14975;SDS011;7584;60.468;25.126;2023-08-08T13:26:37;2.28;;;0.60;;
14975;SDS011;7584;60.468;25.126;2023-08-08T13:29:03;1.50;;;0.50;;
14975;SDS011;7584;60.468;25.126;2023-08-08T13:31:28;2.38;;;0.80;;
14975;SDS011;7584;60.468;25.126;2023-08-08T13:33:53;1.60;;;0.70;;
14975;SDS011;7584;60.468;25.126;2023-08-08T13:36:19;3.25;;;0.82;;
14975;SDS011;7584;60.468;25.126;2023-08-08T13:38:44;1.17;;;0.50;;
14975;SDS011;7584;60.468;25.126;2023-08-08T13:41:09;2.15;;;0.60;;
14975;SDS011;7584;60.468;25.126;2023-08-08T13:43:35;0.95;;;0.63;;
14975;SDS011;7584;60.468;25.126;2023-08-08T13:46:00;1.77;;;0.57;;
14975;SDS011;7584;60.468;25.126;2023-08-08T13:48:27;1.58;;;0.77;;
14975;SDS011;7584;60.468;25.126;2023-08-08T13:50:52;1.98;;;0.50;;
14975;SDS011;7584;60.468;25.126;2023-08-08T13:53:18;3.72;;;0.70;;
14975;SDS011;7584;60.468;25.126;2023-08-08T13:55:43;2.63;;;0.90;;
14975;SDS011;7584;60.468;25.126;2023-08-08T13:58:09;3.60;;;1.10;;
14975;SDS011;7584;60.468;25.126;2023-08-08T14:00:35;2.70;;;0.60;;
14975;SDS011;7584;60.468;25.126;2023-08-08T14:03:01;5.50;;;0.73;;
14975;SDS011;7584;60.468;25.126;2023-08-08T14:05:26;2.08;;;0.70;;
14975;SDS011;7584;60.468;25.126;2023-08-08T14:07:53;1.23;;;0.70;;
14975;SDS011;7584;60.468;25.126;2023-08-08T14:10:18;2.38;;;0.77;;
14975;SDS011;7584;60.468;25.126;2023-08-08T14:12:43;1.65;;;0.70;;
14975;SDS011;7584;60.468;25.126;2023-08-08T14:15:09;3.28;;;1.10;;
14975;SDS011;7584;60.468;25.126;2023-08-08T14:17:34;2.90;;;0.70;;
14975;SDS011;7584;60.468;25.126;2023-08-08T14:19:59;1.67;;;0.95;;
14975;SDS011;7584;60.468;25.126;2023-08-08T14:22:25;2.60;;;0.80;;
14975;SDS011;7584;60.468;25.126;2023-08-08T14:24:50;2.78;;;1.00;;
14975;SDS011;7584;60.468;25.126;2023-08-08T14:27:15;1.38;;;0.70;;
14975;SDS011;7584;60.468;25.126;2023-08-08T14:29:41;4.78;;;0.85;;
14975;SDS011;7584;60.468;25.126;2023-08-08T14:32:06;1.92;;;0.80;;
14975;SDS011;7584;60.468;25.126;2023-08-08T14:34:32;3.47;;;0.90;;
14975;SDS011;7584;60.468;25.126;2023-08-08T14:36:57;2.45;;;0.77;;
14975;SDS011;7584;60.468;25.126;2023-08-08T14:39:23;2.85;;;0.80;;
14975;SDS011;7584;60.468;25.126;2023-08-08T14:41:49;2.67;;;1.08;;
14975;SDS011;7584;60.468;25.126;2023-08-08T14:44:14;1.73;;;0.70;;